sensor_id;sensor_type;location;lat;lon;timestamp;P1;durP1;ratioP1;P2;durP2;ratioP2
73672;SDS011;61972;19.480;-99.240;2023-03-01T00:01:34;10.57;;;8.00;;
73672;SDS011;61972;19.480;-99.240;2023-03-01T00:04:00;12.82;;;8.80;;
73672;SDS011;61972;19.480;-99.240;2023-03-01T00:06:26;12.70;;;7.67;;
73672;SDS011;61972;19.480;-99.240;2023-03-01T00:08:53;11.10;;;8.13;;
73672;SDS011;61972;19.480;-99.240;2023-03-01T00:11:21;11.65;;;7.75;;
73672;SDS011;61972;19.480;-99.240;2023-03-01T00:13:52;12.00;;;7.32;;
73672;SDS011;61972;19.480;-99.240;2023-03-01T00:16:30;9.57;;;7.43;;
73672;SDS011;61972;19.480;-99.240;2023-03-01T00:19:01;10.20;;;6.67;;
73672;SDS011;61972;19.480;-99.240;2023-03-01T00:21:28;10.85;;;7.03;;
73672;SDS011;61972;19.480;-99.240;2023-03-01T00:23:55;13.18;;;6.82;;
73672;SDS011;61972;19.480;-99.240;2023-03-01T00:26:22;10.35;;;6.47;;
73672;SDS011;61972;19.480;-99.240;2023-03-01T00:28:50;11.02;;;6.75;;
73672;SDS011;61972;19.480;-99.240;2023-03-01T00:31:18;10.30;;;6.10;;
73672;SDS011;61972;19.480;-99.240;2023-03-01T00:33:47;9.63;;;6.18;;
73672;SDS011;61972;19.480;-99.240;2023-03-01T00:36:15;12.98;;;6.38;;
73672;SDS011;61972;19.480;-99.240;2023-03-01T00:38:43;12.98;;;6.43;;
73672;SDS011;61972;19.480;-99.240;2023-03-01T00:41:12;8.68;;;6.05;;
73672;SDS011;61972;19.480;-99.240;2023-03-01T00:43:40;12.07;;;5.87;;
73672;SDS011;61972;19.480;-99.240;2023-03-01T00:46:13;11.85;;;6.00;;
73672;SDS011;61972;19.480;-99.240;2023-03-01T00:48:42;10.68;;;5.72;;
73672;SDS011;61972;19.480;-99.240;2023-03-01T00:51:12;10.38;;;5.75;;
73672;SDS011;61972;19.480;-99.240;2023-03-01T00:53:40;16.05;;;6.20;;
73672;SDS011;61972;19.480;-99.240;2023-03-01T00:56:10;10.50;;;5.80;;
73672;SDS011;61972;19.480;-99.240;2023-03-01T00:58:38;18.13;;;5.97;;
73672;SDS011;61972;19.480;-99.240;2023-03-01T01:01:12;11.95;;;6.22;;
73672;SDS011;61972;19.480;-99.240;2023-03-01T01:03:48;11.68;;;6.30;;
73672;SDS011;61972;19.480;-99.240;2023-03-01T01:06:19;9.25;;;5.68;;
73672;SDS011;61972;19.480;-99.240;2023-03-01T01:08:47;9.27;;;5.60;;
73672;SDS011;61972;19.480;-99.240;2023-03-01T01:11:15;13.35;;;5.95;;
73672;SDS011;61972;19.480;-99.240;2023-03-01T01:13:41;9.30;;;5.50;;
73672;SDS011;61972;19.480;-99.240;2023-03-01T01:16:09;11.98;;;6.10;;
73672;SDS011;61972;19.480;-99.240;2023-03-01T01:18:37;8.93;;;5.60;;
73672;SDS011;61972;19.480;-99.240;2023-03-01T01:21:05;10.73;;;5.30;;
73672;SDS011;61972;19.480;-99.240;2023-03-01T01:23:33;10.80;;;5.97;;
73672;SDS011;61972;19.480;-99.240;2023-03-01T01:26:10;11.43;;;6.07;;
73672;SDS011;61972;19.480;-99.240;2023-03-01T01:28:42;11.07;;;5.90;;
73672;SDS011;61972;19.480;-99.240;2023-03-01T01:31:08;10.55;;;5.90;;
73672;SDS011;61972;19.480;-99.240;2023-03-01T01:33:35;11.50;;;5.90;;
73672;SDS011;61972;19.480;-99.240;2023-03-01T01:36:03;14.70;;;6.10;;
73672;SDS011;61972;19.480;-99.240;2023-03-01T01:38:30;14.50;;;6.03;;
73672;SDS011;61972;19.480;-99.240;2023-03-01T01:40:56;12.15;;;6.10;;
73672;SDS011;61972;19.480;-99.240;2023-03-01T01:43:24;11.55;;;5.90;;
73672;SDS011;61972;19.480;-99.240;2023-03-01T01:45:56;12.27;;;4.90;;
73672;SDS011;61972;19.480;-99.240;2023-03-01T01:48:28;15.88;;;5.40;;
73672;SDS011;61972;19.480;-99.240;2023-03-01T01:51:06;13.07;;;5.60;;
73672;SDS011;61972;19.480;-99.240;2023-03-01T01:53:38;13.65;;;5.15;;
73672;SDS011;61972;19.480;-99.240;2023-03-01T01:56:06;11.38;;;5.20;;
73672;SDS011;61972;19.480;-99.240;2023-03-01T01:58:37;11.70;;;5.40;;
73672;SDS011;61972;19.480;-99.240;2023-03-01T02:01:04;19.85;;;5.63;;
73672;SDS011;61972;19.480;-99.240;2023-03-01T02:03:31;12.70;;;4.90;;
73672;SDS011;61972;19.480;-99.240;2023-03-01T02:08:42;14.63;;;5.18;;
73672;SDS011;61972;19.480;-99.240;2023-03-01T02:11:09;10.80;;;5.10;;
73672;SDS011;61972;19.480;-99.240;2023-03-01T02:13:42;19.17;;;5.38;;
73672;SDS011;61972;19.480;-99.240;2023-03-01T02:16:15;16.77;;;5.10;;
73672;SDS011;61972;19.480;-99.240;2023-03-01T02:18:43;11.52;;;5.18;;
73672;SDS011;61972;19.480;-99.240;2023-03-01T02:21:29;12.10;;;5.20;;
73672;SDS011;61972;19.480;-99.240;2023-03-01T02:24:05;11.87;;;5.03;;
73672;SDS011;61972;19.480;-99.240;2023-03-01T02:26:53;16.23;;;5.50;;
73672;SDS011;61972;19.480;-99.240;2023-03-01T02:29:22;23.98;;;5.50;;
73672;SDS011;61972;19.480;-99.240;2023-03-01T02:31:49;14.43;;;5.32;;
73672;SDS011;61972;19.480;-99.240;2023-03-01T02:34:19;16.55;;;5.78;;
73672;SDS011;61972;19.480;-99.240;2023-03-01T02:36:52;15.83;;;5.70;;
73672;SDS011;61972;19.480;-99.240;2023-03-01T02:39:23;12.05;;;5.43;;
73672;SDS011;61972;19.480;-99.240;2023-03-01T02:42:07;17.98;;;6.20;;
73672;SDS011;61972;19.480;-99.240;2023-03-01T02:44:40;15.95;;;6.70;;
73672;SDS011;61972;19.480;-99.240;2023-03-01T02:47:06;16.08;;;5.95;;
73672;SDS011;61972;19.480;-99.240;2023-03-01T02:49:33;16.03;;;6.47;;
73672;SDS011;61972;19.480;-99.240;2023-03-01T02:57:27;14.55;;;6.00;;
73672;SDS011;61972;19.480;-99.240;2023-03-01T02:59:57;14.82;;;6.60;;
73672;SDS011;61972;19.480;-99.240;2023-03-01T03:02:32;18.43;;;6.37;;
73672;SDS011;61972;19.480;-99.240;2023-03-01T03:05:02;13.50;;;6.13;;
73672;SDS011;61972;19.480;-99.240;2023-03-01T03:07:32;16.02;;;6.30;;
73672;SDS011;61972;19.480;-99.240;2023-03-01T03:09:59;12.45;;;6.30;;
73672;SDS011;61972;19.480;-99.240;2023-03-01T03:12:26;20.02;;;6.38;;
73672;SDS011;61972;19.480;-99.240;2023-03-01T03:14:52;15.20;;;6.10;;
73672;SDS011;61972;19.480;-99.240;2023-03-01T03:17:18;18.33;;;5.90;;
73672;SDS011;61972;19.480;-99.240;2023-03-01T03:19:44;15.77;;;6.50;;
73672;SDS011;61972;19.480;-99.240;2023-03-01T03:22:11;20.20;;;7.13;;
73672;SDS011;61972;19.480;-99.240;2023-03-01T03:24:38;16.95;;;7.97;;
73672;SDS011;61972;19.480;-99.240;2023-03-01T03:27:04;16.43;;;7.73;;
73672;SDS011;61972;19.480;-99.240;2023-03-01T03:29:34;17.05;;;9.10;;
73672;SDS011;61972;19.480;-99.240;2023-03-01T03:32:03;16.30;;;9.50;;
73672;SDS011;61972;19.480;-99.240;2023-03-01T03:34:35;21.20;;;8.40;;
73672;SDS011;61972;19.480;-99.240;2023-03-01T03:43:54;19.70;;;8.55;;
73672;SDS011;61972;19.480;-99.240;2023-03-01T03:46:23;21.35;;;9.43;;
73672;SDS011;61972;19.480;-99.240;2023-03-01T03:48:55;15.05;;;9.35;;
73672;SDS011;61972;19.480;-99.240;2023-03-01T03:51:21;18.17;;;9.52;;
73672;SDS011;61972;19.480;-99.240;2023-03-01T04:00:34;18.27;;;9.40;;
73672;SDS011;61972;19.480;-99.240;2023-03-01T04:03:38;16.10;;;8.50;;
73672;SDS011;61972;19.480;-99.240;2023-03-01T04:06:52;13.88;;;8.27;;
73672;SDS011;61972;19.480;-99.240;2023-03-01T04:09:18;10.10;;;7.00;;
73672;SDS011;61972;19.480;-99.240;2023-03-01T04:11:53;11.38;;;7.45;;
73672;SDS011;61972;19.480;-99.240;2023-03-01T04:14:19;17.20;;;8.80;;
73672;SDS011;61972;19.480;-99.240;2023-03-01T04:16:59;14.88;;;9.38;;
73672;SDS011;61972;19.480;-99.240;2023-03-01T04:23:07;14.83;;;8.43;;
73672;SDS011;61972;19.480;-99.240;2023-03-01T04:25:56;13.88;;;8.60;;
73672;SDS011;61972;19.480;-99.240;2023-03-01T04:28:25;15.18;;;8.35;;
73672;SDS011;61972;19.480;-99.240;2023-03-01T04:30:53;14.77;;;8.25;;
73672;SDS011;61972;19.480;-99.240;2023-03-01T04:33:25;16.88;;;8.52;;
73672;SDS011;61972;19.480;-99.240;2023-03-01T04:35:52;15.30;;;9.27;;
73672;SDS011;61972;19.480;-99.240;2023-03-01T04:38:25;17.88;;;9.85;;
73672;SDS011;61972;19.480;-99.240;2023-03-01T04:40:54;19.02;;;9.50;;
73672;SDS011;61972;19.480;-99.240;2023-03-01T04:43:20;20.17;;;10.02;;
73672;SDS011;61972;19.480;-99.240;2023-03-01T04:45:46;16.83;;;10.95;;
73672;SDS011;61972;19.480;-99.240;2023-03-01T04:51:22;18.23;;;10.30;;
73672;SDS011;61972;19.480;-99.240;2023-03-01T04:56:54;14.75;;;7.47;;
73672;SDS011;61972;19.480;-99.240;2023-03-01T04:59:20;14.02;;;7.15;;
73672;SDS011;61972;19.480;-99.240;2023-03-01T05:01:50;12.33;;;6.60;;
73672;SDS011;61972;19.480;-99.240;2023-03-01T05:04:23;10.88;;;6.00;;
73672;SDS011;61972;19.480;-99.240;2023-03-01T05:06:53;9.43;;;6.10;;
73672;SDS011;61972;19.480;-99.240;2023-03-01T05:09:37;9.77;;;5.53;;
73672;SDS011;61972;19.480;-99.240;2023-03-01T05:12:18;10.15;;;5.80;;
73672;SDS011;61972;19.480;-99.240;2023-03-01T05:14:44;14.70;;;5.67;;
73672;SDS011;61972;19.480;-99.240;2023-03-01T05:17:10;9.85;;;5.43;;
73672;SDS011;61972;19.480;-99.240;2023-03-01T05:19:36;11.60;;;5.28;;
73672;SDS011;61972;19.480;-99.240;2023-03-01T05:22:02;10.70;;;5.38;;
73672;SDS011;61972;19.480;-99.240;2023-03-01T05:24:35;10.57;;;5.20;;
73672;SDS011;61972;19.480;-99.240;2023-03-01T05:27:02;9.37;;;5.13;;
73672;SDS011;61972;19.480;-99.240;2023-03-01T05:29:32;10.32;;;5.13;;
73672;SDS011;61972;19.480;-99.240;2023-03-01T05:32:00;9.02;;;5.30;;
73672;SDS011;61972;19.480;-99.240;2023-03-01T05:34:29;8.68;;;5.28;;
73672;SDS011;61972;19.480;-99.240;2023-03-01T05:37:00;11.43;;;5.45;;
73672;SDS011;61972;19.480;-99.240;2023-03-01T05:39:27;8.97;;;4.87;;
73672;SDS011;61972;19.480;-99.240;2023-03-01T05:42:16;9.57;;;5.38;;
73672;SDS011;61972;19.480;-99.240;2023-03-01T05:44:56;10.82;;;5.22;;
73672;SDS011;61972;19.480;-99.240;2023-03-01T05:47:22;8.20;;;5.13;;
73672;SDS011;61972;19.480;-99.240;2023-03-01T05:49:57;10.35;;;5.72;;
73672;SDS011;61972;19.480;-99.240;2023-03-01T05:52:23;10.37;;;5.20;;
73672;SDS011;61972;19.480;-99.240;2023-03-01T05:54:52;10.15;;;5.00;;
73672;SDS011;61972;19.480;-99.240;2023-03-01T06:00:26;8.25;;;4.85;;
73672;SDS011;61972;19.480;-99.240;2023-03-01T06:02:57;10.77;;;4.88;;
73672;SDS011;61972;19.480;-99.240;2023-03-01T06:05:24;8.10;;;4.57;;
73672;SDS011;61972;19.480;-99.240;2023-03-01T06:07:51;8.38;;;4.90;;
73672;SDS011;61972;19.480;-99.240;2023-03-01T06:10:18;9.10;;;5.05;;
73672;SDS011;61972;19.480;-99.240;2023-03-01T06:12:45;6.63;;;4.68;;
73672;SDS011;61972;19.480;-99.240;2023-03-01T06:15:13;10.20;;;5.22;;
73672;SDS011;61972;19.480;-99.240;2023-03-01T06:17:41;9.67;;;4.97;;
73672;SDS011;61972;19.480;-99.240;2023-03-01T06:20:12;8.07;;;5.10;;
73672;SDS011;61972;19.480;-99.240;2023-03-01T06:22:41;9.63;;;5.40;;
73672;SDS011;61972;19.480;-99.240;2023-03-01T06:25:08;11.27;;;5.40;;
73672;SDS011;61972;19.480;-99.240;2023-03-01T06:27:39;11.00;;;5.82;;
73672;SDS011;61972;19.480;-99.240;2023-03-01T06:30:06;12.63;;;5.83;;
73672;SDS011;61972;19.480;-99.240;2023-03-01T06:32:36;12.85;;;5.53;;
73672;SDS011;61972;19.480;-99.240;2023-03-01T06:35:23;9.50;;;6.03;;
73672;SDS011;61972;19.480;-99.240;2023-03-01T06:38:09;9.35;;;5.28;;
73672;SDS011;61972;19.480;-99.240;2023-03-01T06:40:35;8.27;;;5.38;;
73672;SDS011;61972;19.480;-99.240;2023-03-01T06:43:01;11.23;;;5.87;;
73672;SDS011;61972;19.480;-99.240;2023-03-01T06:45:28;10.90;;;5.70;;
73672;SDS011;61972;19.480;-99.240;2023-03-01T06:48:06;11.20;;;6.22;;
73672;SDS011;61972;19.480;-99.240;2023-03-01T06:50:33;10.65;;;5.78;;
73672;SDS011;61972;19.480;-99.240;2023-03-01T06:53:02;8.55;;;5.90;;
73672;SDS011;61972;19.480;-99.240;2023-03-01T06:55:29;10.60;;;6.13;;
73672;SDS011;61972;19.480;-99.240;2023-03-01T06:57:56;9.27;;;5.65;;
73672;SDS011;61972;19.480;-99.240;2023-03-01T07:00:24;10.13;;;5.80;;
73672;SDS011;61972;19.480;-99.240;2023-03-01T07:02:53;8.82;;;5.88;;
73672;SDS011;61972;19.480;-99.240;2023-03-01T07:05:27;12.70;;;5.85;;
73672;SDS011;61972;19.480;-99.240;2023-03-01T07:07:54;11.20;;;6.07;;
73672;SDS011;61972;19.480;-99.240;2023-03-01T07:10:26;13.45;;;6.18;;
73672;SDS011;61972;19.480;-99.240;2023-03-01T07:12:58;17.25;;;7.05;;
73672;SDS011;61972;19.480;-99.240;2023-03-01T07:15:27;9.82;;;6.28;;
73672;SDS011;61972;19.480;-99.240;2023-03-01T07:18:11;12.90;;;6.50;;
73672;SDS011;61972;19.480;-99.240;2023-03-01T07:20:37;10.40;;;6.30;;
73672;SDS011;61972;19.480;-99.240;2023-03-01T07:23:06;12.20;;;6.43;;
73672;SDS011;61972;19.480;-99.240;2023-03-01T07:25:35;12.55;;;6.80;;
73672;SDS011;61972;19.480;-99.240;2023-03-01T07:28:02;10.20;;;6.53;;
73672;SDS011;61972;19.480;-99.240;2023-03-01T07:30:30;10.90;;;7.13;;
73672;SDS011;61972;19.480;-99.240;2023-03-01T07:33:00;11.17;;;6.80;;
73672;SDS011;61972;19.480;-99.240;2023-03-01T07:35:26;10.40;;;6.65;;
73672;SDS011;61972;19.480;-99.240;2023-03-01T07:37:53;10.52;;;6.80;;
73672;SDS011;61972;19.480;-99.240;2023-03-01T07:40:19;10.57;;;6.85;;
73672;SDS011;61972;19.480;-99.240;2023-03-01T07:42:45;16.08;;;7.75;;
73672;SDS011;61972;19.480;-99.240;2023-03-01T07:45:12;19.33;;;7.73;;
73672;SDS011;61972;19.480;-99.240;2023-03-01T07:47:39;19.55;;;7.88;;
73672;SDS011;61972;19.480;-99.240;2023-03-01T07:50:05;15.32;;;8.00;;
73672;SDS011;61972;19.480;-99.240;2023-03-01T07:52:32;14.85;;;8.18;;
73672;SDS011;61972;19.480;-99.240;2023-03-01T07:54:58;17.42;;;8.10;;
73672;SDS011;61972;19.480;-99.240;2023-03-01T07:57:24;12.33;;;7.17;;
73672;SDS011;61972;19.480;-99.240;2023-03-01T07:59:50;15.02;;;7.90;;
73672;SDS011;61972;19.480;-99.240;2023-03-01T08:02:16;13.25;;;7.43;;
73672;SDS011;61972;19.480;-99.240;2023-03-01T08:04:43;12.38;;;7.50;;
73672;SDS011;61972;19.480;-99.240;2023-03-01T08:07:09;12.13;;;7.32;;
73672;SDS011;61972;19.480;-99.240;2023-03-01T08:09:35;13.87;;;7.47;;
73672;SDS011;61972;19.480;-99.240;2023-03-01T08:12:02;10.68;;;7.60;;
73672;SDS011;61972;19.480;-99.240;2023-03-01T08:14:30;16.75;;;7.72;;
73672;SDS011;61972;19.480;-99.240;2023-03-01T08:16:59;11.77;;;6.78;;
73672;SDS011;61972;19.480;-99.240;2023-03-01T08:19:25;10.02;;;6.80;;
73672;SDS011;61972;19.480;-99.240;2023-03-01T08:21:53;13.77;;;7.23;;
73672;SDS011;61972;19.480;-99.240;2023-03-01T08:24:19;13.25;;;6.95;;
73672;SDS011;61972;19.480;-99.240;2023-03-01T08:26:45;11.73;;;6.97;;
73672;SDS011;61972;19.480;-99.240;2023-03-01T08:29:11;10.18;;;6.80;;
73672;SDS011;61972;19.480;-99.240;2023-03-01T08:31:38;11.07;;;6.80;;
73672;SDS011;61972;19.480;-99.240;2023-03-01T08:34:06;9.57;;;6.53;;
73672;SDS011;61972;19.480;-99.240;2023-03-01T08:36:37;9.10;;;6.20;;
73672;SDS011;61972;19.480;-99.240;2023-03-01T08:39:06;13.00;;;6.40;;
73672;SDS011;61972;19.480;-99.240;2023-03-01T08:41:33;9.60;;;6.25;;
73672;SDS011;61972;19.480;-99.240;2023-03-01T08:44:00;10.32;;;6.35;;
73672;SDS011;61972;19.480;-99.240;2023-03-01T08:46:27;8.73;;;6.00;;
73672;SDS011;61972;19.480;-99.240;2023-03-01T08:48:54;9.82;;;6.63;;
73672;SDS011;61972;19.480;-99.240;2023-03-01T08:51:21;12.73;;;6.57;;
73672;SDS011;61972;19.480;-99.240;2023-03-01T08:53:49;8.45;;;5.50;;
73672;SDS011;61972;19.480;-99.240;2023-03-01T08:56:15;8.90;;;6.47;;
73672;SDS011;61972;19.480;-99.240;2023-03-01T08:58:46;8.63;;;6.17;;
73672;SDS011;61972;19.480;-99.240;2023-03-01T09:01:14;9.68;;;6.35;;
73672;SDS011;61972;19.480;-99.240;2023-03-01T09:03:42;10.18;;;6.78;;
73672;SDS011;61972;19.480;-99.240;2023-03-01T09:06:09;12.30;;;6.53;;
73672;SDS011;61972;19.480;-99.240;2023-03-01T09:08:36;9.70;;;6.53;;
73672;SDS011;61972;19.480;-99.240;2023-03-01T09:11:04;11.07;;;6.50;;
73672;SDS011;61972;19.480;-99.240;2023-03-01T09:13:32;10.50;;;6.53;;
73672;SDS011;61972;19.480;-99.240;2023-03-01T09:15:58;10.23;;;6.88;;
73672;SDS011;61972;19.480;-99.240;2023-03-01T09:18:27;10.40;;;6.70;;
73672;SDS011;61972;19.480;-99.240;2023-03-01T09:21:00;9.32;;;6.60;;
73672;SDS011;61972;19.480;-99.240;2023-03-01T09:23:33;11.97;;;6.70;;
73672;SDS011;61972;19.480;-99.240;2023-03-01T09:26:05;10.68;;;6.75;;
73672;SDS011;61972;19.480;-99.240;2023-03-01T09:28:34;10.20;;;6.97;;
73672;SDS011;61972;19.480;-99.240;2023-03-01T09:31:01;9.43;;;6.47;;
73672;SDS011;61972;19.480;-99.240;2023-03-01T09:33:34;11.20;;;7.47;;
73672;SDS011;61972;19.480;-99.240;2023-03-01T09:36:02;12.83;;;7.40;;
73672;SDS011;61972;19.480;-99.240;2023-03-01T09:38:30;12.98;;;7.70;;
73672;SDS011;61972;19.480;-99.240;2023-03-01T09:40:57;11.90;;;8.05;;
73672;SDS011;61972;19.480;-99.240;2023-03-01T09:46:06;13.40;;;8.40;;
73672;SDS011;61972;19.480;-99.240;2023-03-01T09:48:43;14.50;;;8.83;;
73672;SDS011;61972;19.480;-99.240;2023-03-01T09:51:12;11.55;;;7.90;;
73672;SDS011;61972;19.480;-99.240;2023-03-01T09:53:45;14.45;;;9.25;;
73672;SDS011;61972;19.480;-99.240;2023-03-01T09:56:19;13.13;;;8.90;;
73672;SDS011;61972;19.480;-99.240;2023-03-01T09:59:11;12.18;;;8.60;;
73672;SDS011;61972;19.480;-99.240;2023-03-01T10:01:56;14.33;;;9.00;;
73672;SDS011;61972;19.480;-99.240;2023-03-01T10:10:21;14.95;;;8.60;;
73672;SDS011;61972;19.480;-99.240;2023-03-01T10:12:53;13.25;;;8.23;;
73672;SDS011;61972;19.480;-99.240;2023-03-01T10:15:22;10.73;;;8.10;;
73672;SDS011;61972;19.480;-99.240;2023-03-01T10:18:01;15.60;;;8.05;;
73672;SDS011;61972;19.480;-99.240;2023-03-01T10:23:15;12.30;;;8.18;;
73672;SDS011;61972;19.480;-99.240;2023-03-01T10:25:47;12.35;;;8.80;;
73672;SDS011;61972;19.480;-99.240;2023-03-01T10:28:31;13.63;;;8.43;;
73672;SDS011;61972;19.480;-99.240;2023-03-01T10:31:04;11.65;;;8.18;;
73672;SDS011;61972;19.480;-99.240;2023-03-01T10:33:32;13.35;;;9.07;;
73672;SDS011;61972;19.480;-99.240;2023-03-01T10:36:02;14.02;;;9.10;;
73672;SDS011;61972;19.480;-99.240;2023-03-01T10:38:30;13.65;;;9.45;;
73672;SDS011;61972;19.480;-99.240;2023-03-01T10:41:11;13.20;;;9.27;;
73672;SDS011;61972;19.480;-99.240;2023-03-01T10:43:48;13.82;;;9.02;;
73672;SDS011;61972;19.480;-99.240;2023-03-01T10:46:30;16.05;;;10.18;;
73672;SDS011;61972;19.480;-99.240;2023-03-01T10:49:17;14.02;;;10.27;;
73672;SDS011;61972;19.480;-99.240;2023-03-01T10:51:51;16.92;;;10.20;;
73672;SDS011;61972;19.480;-99.240;2023-03-01T10:56:58;16.48;;;10.63;;
73672;SDS011;61972;19.480;-99.240;2023-03-01T10:59:38;15.27;;;10.95;;
73672;SDS011;61972;19.480;-99.240;2023-03-01T11:02:14;16.88;;;10.68;;
73672;SDS011;61972;19.480;-99.240;2023-03-01T11:05:02;15.73;;;10.70;;
73672;SDS011;61972;19.480;-99.240;2023-03-01T11:07:46;17.30;;;11.60;;
73672;SDS011;61972;19.480;-99.240;2023-03-01T11:10:16;16.13;;;11.00;;
73672;SDS011;61972;19.480;-99.240;2023-03-01T11:13:13;16.50;;;11.70;;
73672;SDS011;61972;19.480;-99.240;2023-03-01T11:16:06;17.83;;;11.40;;
73672;SDS011;61972;19.480;-99.240;2023-03-01T11:18:37;16.98;;;11.18;;
73672;SDS011;61972;19.480;-99.240;2023-03-01T11:21:03;17.03;;;11.37;;
73672;SDS011;61972;19.480;-99.240;2023-03-01T11:23:30;16.75;;;11.88;;
73672;SDS011;61972;19.480;-99.240;2023-03-01T11:25:59;17.50;;;11.95;;
73672;SDS011;61972;19.480;-99.240;2023-03-01T11:28:29;17.95;;;11.70;;
73672;SDS011;61972;19.480;-99.240;2023-03-01T11:31:13;18.52;;;12.65;;
73672;SDS011;61972;19.480;-99.240;2023-03-01T11:33:47;18.40;;;12.43;;
73672;SDS011;61972;19.480;-99.240;2023-03-01T11:41:58;17.42;;;12.60;;
73672;SDS011;61972;19.480;-99.240;2023-03-01T11:44:30;18.25;;;12.85;;
73672;SDS011;61972;19.480;-99.240;2023-03-01T12:11:42;20.83;;;14.07;;
73672;SDS011;61972;19.480;-99.240;2023-03-01T12:17:11;19.65;;;13.45;;
73672;SDS011;61972;19.480;-99.240;2023-03-01T12:20:02;22.60;;;13.60;;
73672;SDS011;61972;19.480;-99.240;2023-03-01T12:30:59;17.98;;;12.10;;
73672;SDS011;61972;19.480;-99.240;2023-03-01T12:42:35;19.70;;;12.37;;
73672;SDS011;61972;19.480;-99.240;2023-03-01T12:45:25;19.45;;;12.65;;
73672;SDS011;61972;19.480;-99.240;2023-03-01T12:48:31;21.70;;;12.15;;
73672;SDS011;61972;19.480;-99.240;2023-03-01T12:51:04;18.25;;;11.77;;
73672;SDS011;61972;19.480;-99.240;2023-03-01T12:53:37;22.17;;;12.05;;
73672;SDS011;61972;19.480;-99.240;2023-03-01T12:56:17;17.37;;;11.03;;
73672;SDS011;61972;19.480;-99.240;2023-03-01T12:59:00;17.58;;;10.90;;
73672;SDS011;61972;19.480;-99.240;2023-03-01T13:10:16;19.73;;;10.40;;
73672;SDS011;61972;19.480;-99.240;2023-03-01T13:15:37;26.13;;;11.38;;
73672;SDS011;61972;19.480;-99.240;2023-03-01T13:20:48;19.13;;;10.77;;
73672;SDS011;61972;19.480;-99.240;2023-03-01T13:31:10;18.98;;;9.77;;
73672;SDS011;61972;19.480;-99.240;2023-03-01T13:33:56;23.15;;;10.30;;
73672;SDS011;61972;19.480;-99.240;2023-03-01T13:39:02;22.25;;;9.15;;
73672;SDS011;61972;19.480;-99.240;2023-03-01T13:57:43;17.38;;;8.80;;
73672;SDS011;61972;19.480;-99.240;2023-03-01T14:00:32;18.58;;;8.32;;
73672;SDS011;61972;19.480;-99.240;2023-03-01T14:03:10;17.63;;;7.73;;
73672;SDS011;61972;19.480;-99.240;2023-03-01T14:05:38;14.98;;;8.15;;
73672;SDS011;61972;19.480;-99.240;2023-03-01T14:08:18;15.55;;;8.20;;
73672;SDS011;61972;19.480;-99.240;2023-03-01T14:10:54;17.02;;;8.60;;
73672;SDS011;61972;19.480;-99.240;2023-03-01T14:16:23;20.90;;;8.90;;
73672;SDS011;61972;19.480;-99.240;2023-03-01T14:19:14;17.60;;;8.45;;
73672;SDS011;61972;19.480;-99.240;2023-03-01T14:24:39;21.23;;;9.18;;
73672;SDS011;61972;19.480;-99.240;2023-03-01T14:27:14;18.63;;;9.57;;
73672;SDS011;61972;19.480;-99.240;2023-03-01T14:29:45;18.97;;;9.50;;
73672;SDS011;61972;19.480;-99.240;2023-03-01T14:32:25;19.13;;;9.30;;
73672;SDS011;61972;19.480;-99.240;2023-03-01T14:34:55;20.95;;;9.40;;
73672;SDS011;61972;19.480;-99.240;2023-03-01T14:37:30;17.88;;;8.60;;
73672;SDS011;61972;19.480;-99.240;2023-03-01T14:39:58;20.20;;;9.25;;
73672;SDS011;61972;19.480;-99.240;2023-03-01T14:42:31;18.43;;;8.87;;
73672;SDS011;61972;19.480;-99.240;2023-03-01T14:45:01;16.42;;;8.63;;
73672;SDS011;61972;19.480;-99.240;2023-03-01T14:47:32;17.85;;;8.95;;
73672;SDS011;61972;19.480;-99.240;2023-03-01T14:50:02;20.70;;;8.57;;
73672;SDS011;61972;19.480;-99.240;2023-03-01T14:52:48;17.00;;;8.85;;
73672;SDS011;61972;19.480;-99.240;2023-03-01T14:55:17;18.20;;;9.00;;
73672;SDS011;61972;19.480;-99.240;2023-03-01T14:57:48;16.65;;;8.65;;
73672;SDS011;61972;19.480;-99.240;2023-03-01T15:00:20;15.73;;;8.35;;
73672;SDS011;61972;19.480;-99.240;2023-03-01T15:02:49;17.05;;;8.35;;
73672;SDS011;61972;19.480;-99.240;2023-03-01T15:05:22;16.40;;;8.07;;
73672;SDS011;61972;19.480;-99.240;2023-03-01T15:07:59;14.60;;;8.07;;
73672;SDS011;61972;19.480;-99.240;2023-03-01T15:10:29;18.23;;;8.32;;
73672;SDS011;61972;19.480;-99.240;2023-03-01T15:13:09;17.08;;;7.90;;
73672;SDS011;61972;19.480;-99.240;2023-03-01T15:15:41;17.90;;;8.35;;
73672;SDS011;61972;19.480;-99.240;2023-03-01T15:18:32;15.52;;;7.95;;
73672;SDS011;61972;19.480;-99.240;2023-03-01T15:21:31;15.80;;;7.57;;
73672;SDS011;61972;19.480;-99.240;2023-03-01T15:23:54;19.20;;;7.97;;
73672;SDS011;61972;19.480;-99.240;2023-03-01T15:29:21;14.18;;;8.52;;
73672;SDS011;61972;19.480;-99.240;2023-03-01T15:31:56;14.70;;;8.50;;
73672;SDS011;61972;19.480;-99.240;2023-03-01T15:34:35;15.53;;;8.10;;
73672;SDS011;61972;19.480;-99.240;2023-03-01T15:37:03;18.95;;;9.50;;
73672;SDS011;61972;19.480;-99.240;2023-03-01T15:39:34;17.77;;;8.65;;
73672;SDS011;61972;19.480;-99.240;2023-03-01T15:47:47;16.03;;;8.27;;
73672;SDS011;61972;19.480;-99.240;2023-03-01T15:50:22;20.10;;;8.65;;
73672;SDS011;61972;19.480;-99.240;2023-03-01T15:52:52;14.18;;;8.65;;
73672;SDS011;61972;19.480;-99.240;2023-03-01T15:55:26;14.13;;;7.85;;
73672;SDS011;61972;19.480;-99.240;2023-03-01T15:58:03;13.60;;;7.80;;
73672;SDS011;61972;19.480;-99.240;2023-03-01T16:00:37;15.23;;;8.43;;
73672;SDS011;61972;19.480;-99.240;2023-03-01T16:03:04;13.35;;;8.07;;
73672;SDS011;61972;19.480;-99.240;2023-03-01T16:05:33;15.40;;;7.80;;
73672;SDS011;61972;19.480;-99.240;2023-03-01T16:08:02;14.75;;;8.20;;
73672;SDS011;61972;19.480;-99.240;2023-03-01T16:10:29;12.73;;;8.15;;
73672;SDS011;61972;19.480;-99.240;2023-03-01T16:12:56;17.97;;;8.70;;
73672;SDS011;61972;19.480;-99.240;2023-03-01T16:15:23;12.50;;;8.40;;
73672;SDS011;61972;19.480;-99.240;2023-03-01T16:17:52;13.15;;;8.65;;
73672;SDS011;61972;19.480;-99.240;2023-03-01T16:20:18;12.20;;;8.02;;
73672;SDS011;61972;19.480;-99.240;2023-03-01T16:22:45;15.05;;;9.07;;
73672;SDS011;61972;19.480;-99.240;2023-03-01T16:25:12;17.30;;;8.97;;
73672;SDS011;61972;19.480;-99.240;2023-03-01T16:27:44;15.30;;;8.85;;
73672;SDS011;61972;19.480;-99.240;2023-03-01T16:30:11;14.95;;;8.85;;
73672;SDS011;61972;19.480;-99.240;2023-03-01T16:32:42;16.00;;;9.60;;
73672;SDS011;61972;19.480;-99.240;2023-03-01T16:35:11;17.30;;;10.30;;
73672;SDS011;61972;19.480;-99.240;2023-03-01T16:37:39;17.10;;;11.03;;
73672;SDS011;61972;19.480;-99.240;2023-03-01T16:40:06;15.48;;;10.65;;
73672;SDS011;61972;19.480;-99.240;2023-03-01T16:42:42;16.45;;;10.70;;
73672;SDS011;61972;19.480;-99.240;2023-03-01T16:45:08;17.58;;;11.05;;
73672;SDS011;61972;19.480;-99.240;2023-03-01T16:47:35;20.30;;;11.55;;
73672;SDS011;61972;19.480;-99.240;2023-03-01T16:50:01;19.10;;;10.67;;
73672;SDS011;61972;19.480;-99.240;2023-03-01T16:52:27;21.27;;;11.85;;
73672;SDS011;61972;19.480;-99.240;2023-03-01T16:54:54;17.88;;;11.77;;
73672;SDS011;61972;19.480;-99.240;2023-03-01T16:57:20;17.77;;;12.35;;
73672;SDS011;61972;19.480;-99.240;2023-03-01T16:59:46;15.23;;;11.40;;
73672;SDS011;61972;19.480;-99.240;2023-03-01T17:02:12;18.97;;;11.80;;
73672;SDS011;61972;19.480;-99.240;2023-03-01T17:04:43;16.80;;;12.07;;
73672;SDS011;61972;19.480;-99.240;2023-03-01T17:07:09;17.55;;;12.38;;